Time;durP1;ratioP1;P1;durP2;ratioP2;P2;SDS_P1;SDS_P2;PMS_P1;PMS_P2;Temp;Humidity;BMP_temperature;BMP_pressure;BME280_temperature;BME280_humidity;BME280_pressure;Samples;Min_cycle;Max_cycle;Signal;HPM_P1;HPM_P2
2022/06/06 00:01:51;;;;;;;78.23;40.70;;;;;;;;;;5073855;28;20613;-67
2022/06/06 00:04:18;;;;;;;78.47;41.50;;;;;;;;;;5073541;28;20178;-67
2022/06/06 00:06:44;;;;;;;83.23;40.97;;;;;;;;;;5073221;28;20235;-67
2022/06/06 00:09:11;;;;;;;74.03;40.23;;;;;;;;;;5055169;28;20607;-67
2022/06/06 00:11:37;;;;;;;74.57;39.07;;;;;;;;;;5073540;28;20206;-67
2022/06/06 00:14:04;;;;;;;87.07;43.17;;;;;;;;;;5073399;28;20562;-67
2022/06/06 00:16:30;;;;;;;92.83;43.30;;;;;;;;;;5055001;28;20232;-67
2022/06/06 00:18:56;;;;;;;91.87;43.17;;;;;;;;;;5073199;28;20194;-67
2022/06/06 00:21:23;;;;;;;80.27;42.57;;;;;;;;;;5054328;28;20229;-68
2022/06/06 00:23:49;;;;;;;76.63;40.50;;;;;;;;;;5055270;28;20174;-67
2022/06/06 00:26:16;;;;;;;85.43;42.67;;;;;;;;;;5055218;28;20186;-67
2022/06/06 00:28:45;;;;;;;80.20;40.30;;;;;;;;;;5073239;28;20255;-67
2022/06/06 00:36:42;;;;;;;78.23;39.97;;;;;;;;;;5073583;28;20286;-67
2022/06/06 00:39:09;;;;;;;74.83;37.17;;;;;;;;;;5073232;28;20201;-67
2022/06/06 00:41:39;;;;;;;71.13;38.97;;;;;;;;;;5073194;28;20197;-67
2022/06/06 00:44:10;;;;;;;71.10;37.30;;;;;;;;;;5073445;28;20529;-67
2022/06/06 00:46:39;;;;;;;76.03;37.87;;;;;;;;;;5073034;28;20219;-67
2022/06/06 00:49:07;;;;;;;73.07;37.43;;;;;;;;;;5055144;28;20186;-67
2022/06/06 00:51:33;;;;;;;64.03;35.50;;;;;;;;;;5072992;28;20194;-66
2022/06/06 00:53:59;;;;;;;68.60;37.43;;;;;;;;;;5072806;28;20638;-67
2022/06/06 00:56:25;;;;;;;62.90;34.60;;;;;;;;;;5072978;28;20231;-67
2022/06/06 00:58:53;;;;;;;64.30;34.97;;;;;;;;;;5072953;28;20178;-67
2022/06/06 01:01:20;;;;;;;61.43;34.47;;;;;;;;;;5073250;28;20194;-66
2022/06/06 01:03:46;;;;;;;65.97;37.07;;;;;;;;;;5072989;28;20174;-66
2022/06/06 01:06:14;;;;;;;63.10;34.90;;;;;;;;;;5054908;28;20177;-66
2022/06/06 01:08:40;;;;;;;59.80;32.77;;;;;;;;;;5072884;28;20174;-66
2022/06/06 01:11:06;;;;;;;61.87;32.77;;;;;;;;;;5072703;28;20192;-66
2022/06/06 01:13:34;;;;;;;54.47;33.30;;;;;;;;;;5072822;28;20269;-66
2022/06/06 01:16:18;;;;;;;55.63;31.77;;;;;;;;;;5054583;28;20646;-67
2022/06/06 01:18:51;;;;;;;52.93;30.97;;;;;;;;;;5073033;28;20239;-67
2022/06/06 01:21:31;;;;;;;54.80;29.43;;;;;;;;;;5073030;28;20580;-66
2022/06/06 01:24:20;;;;;;;52.47;30.80;;;;;;;;;;5072981;28;20630;-66
2022/06/06 01:26:52;;;;;;;51.73;29.30;;;;;;;;;;5026672;28;20202;-66
2022/06/06 01:29:27;;;;;;;50.90;27.80;;;;;;;;;;5072596;28;20227;-67
2022/06/06 01:32:02;;;;;;;56.80;30.30;;;;;;;;;;5073481;28;20720;-66
2022/06/06 01:34:40;;;;;;;48.77;26.10;;;;;;;;;;5076794;28;20178;-66
2022/06/06 01:37:25;;;;;;;45.83;27.63;;;;;;;;;;5076743;28;20247;-66
2022/06/06 01:39:51;;;;;;;47.57;27.47;;;;;;;;;;5076247;28;20206;-66
2022/06/06 01:42:22;;;;;;;47.03;26.03;;;;;;;;;;5058141;28;20595;-67
2022/06/06 01:44:58;;;;;;;43.73;24.70;;;;;;;;;;5075934;28;20178;-66
2022/06/06 01:47:27;;;;;;;50.17;26.40;;;;;;;;;;5102124;22;20685;-68
2022/06/06 01:49:57;;;;;;;50.13;26.97;;;;;;;;;;5076416;28;20185;-65
2022/06/06 01:52:23;;;;;;;49.00;27.43;;;;;;;;;;5058159;28;20181;-65
2022/06/06 01:54:52;;;;;;;52.30;27.70;;;;;;;;;;5075798;28;20176;-65
2022/06/06 01:57:19;;;;;;;51.47;26.23;;;;;;;;;;5076063;28;20764;-66
2022/06/06 01:59:45;;;;;;;47.43;26.63;;;;;;;;;;5076264;28;20607;-67
2022/06/06 02:02:11;;;;;;;50.97;26.43;;;;;;;;;;5076208;28;20198;-66
2022/06/06 02:04:37;;;;;;;49.50;25.73;;;;;;;;;;5076139;28;20185;-67
2022/06/06 02:07:03;;;;;;;53.53;26.43;;;;;;;;;;5058010;28;20585;-68
2022/06/06 02:09:31;;;;;;;49.07;27.27;;;;;;;;;;5076064;28;20178;-67
2022/06/06 02:11:58;;;;;;;51.47;26.43;;;;;;;;;;5076613;28;20173;-66
2022/06/06 02:14:24;;;;;;;48.10;25.67;;;;;;;;;;5075842;28;20185;-67
2022/06/06 02:16:50;;;;;;;48.50;25.83;;;;;;;;;;5057664;28;20197;-66
2022/06/06 02:19:16;;;;;;;52.97;27.03;;;;;;;;;;5057808;28;20593;-66
2022/06/06 02:21:42;;;;;;;50.33;25.80;;;;;;;;;;5075449;28;20185;-66
2022/06/06 02:24:08;;;;;;;50.07;26.07;;;;;;;;;;5075475;28;20223;-66
2022/06/06 02:26:34;;;;;;;42.33;23.07;;;;;;;;;;5057317;28;20185;-66
2022/06/06 02:29:01;;;;;;;48.73;23.20;;;;;;;;;;5075139;28;20550;-65
2022/06/06 02:31:27;;;;;;;43.80;22.83;;;;;;;;;;5075819;28;20174;-66
2022/06/06 02:33:53;;;;;;;40.30;23.40;;;;;;;;;;5075262;28;20708;-66
2022/06/06 02:36:19;;;;;;;46.00;24.20;;;;;;;;;;5075180;28;20598;-65
2022/06/06 02:38:45;;;;;;;43.30;24.60;;;;;;;;;;5075100;28;20198;-65
2022/06/06 02:41:11;;;;;;;48.97;23.83;;;;;;;;;;5075531;28;20178;-65
2022/06/06 02:43:42;;;;;;;47.60;23.80;;;;;;;;;;5074604;28;20222;-66
2022/06/06 02:46:08;;;;;;;48.83;24.47;;;;;;;;;;5075204;28;20154;-65
2022/06/06 02:48:35;;;;;;;44.37;22.87;;;;;;;;;;5056929;28;20217;-67
2022/06/06 02:51:02;;;;;;;49.17;25.07;;;;;;;;;;5075182;28;20169;-65
2022/06/06 02:53:28;;;;;;;51.10;24.57;;;;;;;;;;5075118;28;20198;-67
2022/06/06 02:55:54;;;;;;;46.03;24.37;;;;;;;;;;5056940;28;20182;-65
2022/06/06 02:58:21;;;;;;;47.60;25.10;;;;;;;;;;5056785;28;20217;-65
2022/06/06 03:00:47;;;;;;;48.90;24.77;;;;;;;;;;5075161;28;20181;-65
2022/06/06 03:03:13;;;;;;;49.17;25.90;;;;;;;;;;5056826;28;20178;-65
2022/06/06 03:05:48;;;;;;;50.03;26.50;;;;;;;;;;5074645;28;20642;-65
2022/06/06 03:08:17;;;;;;;44.77;24.00;;;;;;;;;;5074812;28;20669;-65
2022/06/06 03:10:58;;;;;;;50.60;25.80;;;;;;;;;;5075150;28;20181;-65
2022/06/06 03:13:36;;;;;;;51.27;24.63;;;;;;;;;;5056542;28;20170;-65
2022/06/06 03:22:15;;;;;;;52.73;25.53;;;;;;;;;;5074650;28;20546;-65
2022/06/06 03:24:44;;;;;;;47.87;24.00;;;;;;;;;;5046833;28;20189;-65
2022/06/06 03:27:29;;;;;;;46.83;24.20;;;;;;;;;;5074321;28;20182;-66
2022/06/06 03:30:14;;;;;;;50.63;23.77;;;;;;;;;;5056473;28;20181;-67
2022/06/06 03:32:59;;;;;;;43.63;23.37;;;;;;;;;;5074743;28;20600;-67
2022/06/06 03:35:34;;;;;;;32.43;19.70;;;;;;;;;;5056578;28;20182;-68
2022/06/06 03:38:02;;;;;;;31.67;20.13;;;;;;;;;;5056302;28;20315;-66
2022/06/06 03:40:40;;;;;;;34.63;19.03;;;;;;;;;;5074212;28;20638;-67
2022/06/06 03:43:10;;;;;;;31.60;17.63;;;;;;;;;;5074189;28;20256;-67
2022/06/06 03:45:45;;;;;;;30.13;16.80;;;;;;;;;;5074065;28;20181;-68
2022/06/06 03:48:20;;;;;;;28.10;15.43;;;;;;;;;;5074097;28;20213;-67
2022/06/06 03:50:46;;;;;;;22.63;14.50;;;;;;;;;;5056230;28;20178;-69
2022/06/06 03:53:19;;;;;;;23.90;13.00;;;;;;;;;;5073905;28;20181;-67
2022/06/06 03:56:01;;;;;;;22.70;12.93;;;;;;;;;;5055983;28;20186;-66
2022/06/06 03:58:29;;;;;;;22.37;13.70;;;;;;;;;;5055752;28;20275;-67
2022/06/06 04:00:56;;;;;;;17.13;10.77;;;;;;;;;;5055964;28;20173;-68
2022/06/06 04:03:22;;;;;;;20.07;12.13;;;;;;;;;;5073756;28;20185;-68
2022/06/06 04:05:48;;;;;;;21.80;12.20;;;;;;;;;;5073646;28;20174;-67
2022/06/06 04:08:14;;;;;;;17.87;11.57;;;;;;;;;;5073846;28;20220;-67
2022/06/06 04:10:55;;;;;;;20.03;11.03;;;;;;;;;;5055896;28;20174;-66
2022/06/06 04:13:21;;;;;;;20.00;12.03;;;;;;;;;;5073561;28;20251;-67
2022/06/06 04:15:47;;;;;;;18.70;11.57;;;;;;;;;;5073865;28;20205;-66
2022/06/06 04:18:31;;;;;;;16.03;10.47;;;;;;;;;;5056045;28;20241;-66
2022/06/06 04:21:06;;;;;;;18.77;11.67;;;;;;;;;;5073580;28;20177;-66
2022/06/06 04:23:40;;;;;;;15.80;10.90;;;;;;;;;;5073492;28;20521;-66
2022/06/06 04:26:21;;;;;;;17.27;10.73;;;;;;;;;;5074344;28;20505;-66
2022/06/06 04:28:52;;;;;;;13.77;10.57;;;;;;;;;;5073203;28;20194;-66
2022/06/06 04:31:51;;;;;;;17.97;11.03;;;;;;;;;;5073612;28;20212;-66
2022/06/06 04:34:21;;;;;;;17.13;11.10;;;;;;;;;;5029859;28;20198;-67
2022/06/06 04:37:05;;;;;;;17.90;11.47;;;;;;;;;;5055881;28;20575;-67
2022/06/06 04:39:31;;;;;;;15.37;10.60;;;;;;;;;;5056458;28;20170;-66
2022/06/06 04:42:09;;;;;;;13.37;9.83;;;;;;;;;;5055688;28;20197;-66
2022/06/06 04:44:35;;;;;;;15.73;10.40;;;;;;;;;;5073706;28;20167;-67
2022/06/06 04:47:14;;;;;;;18.83;10.80;;;;;;;;;;5073136;28;20648;-66
2022/06/06 04:49:40;;;;;;;14.83;11.07;;;;;;;;;;5055355;28;20227;-67
2022/06/06 04:52:06;;;;;;;17.03;10.83;;;;;;;;;;5074080;28;20248;-66
2022/06/06 04:54:33;;;;;;;11.90;8.87;;;;;;;;;;5073349;28;20209;-66
2022/06/06 04:57:03;;;;;;;13.33;8.60;;;;;;;;;;5073345;28;20211;-66
2022/06/06 04:59:30;;;;;;;14.23;9.83;;;;;;;;;;5073249;28;20253;-66
2022/06/06 05:01:59;;;;;;;11.80;7.97;;;;;;;;;;5073444;28;20182;-66
2022/06/06 05:04:25;;;;;;;13.10;8.43;;;;;;;;;;5055306;28;20173;-66
2022/06/06 05:07:00;;;;;;;11.87;8.47;;;;;;;;;;5074071;28;20231;-67
2022/06/06 05:09:46;;;;;;;11.10;8.63;;;;;;;;;;5059070;28;20264;-66
2022/06/06 05:12:19;;;;;;;18.77;9.37;;;;;;;;;;5019436;28;20213;-67
2022/06/06 05:14:49;;;;;;;12.27;9.00;;;;;;;;;;5077041;28;20174;-67
2022/06/06 05:17:33;;;;;;;13.57;8.77;;;;;;;;;;5058935;28;20267;-66
2022/06/06 05:20:14;;;;;;;12.83;10.20;;;;;;;;;;5077211;28;20200;-66
2022/06/06 05:22:56;;;;;;;15.37;10.17;;;;;;;;;;5059542;28;20525;-68
2022/06/06 05:25:29;;;;;;;16.67;9.87;;;;;;;;;;5077136;28;20180;-66
2022/06/06 05:28:14;;;;;;;13.80;9.27;;;;;;;;;;5077218;28;20284;-67
2022/06/06 05:30:50;;;;;;;12.93;9.67;;;;;;;;;;5059351;28;20238;-67
2022/06/06 05:33:25;;;;;;;18.53;9.37;;;;;;;;;;5059410;28;20185;-67
2022/06/06 05:36:11;;;;;;;16.50;9.67;;;;;;;;;;5077186;28;20252;-67
2022/06/06 05:38:44;;;;;;;14.57;9.60;;;;;;;;;;5076547;28;20237;-67
2022/06/06 05:41:10;;;;;;;12.60;8.57;;;;;;;;;;5076935;28;20166;-67
2022/06/06 05:43:49;;;;;;;11.63;8.40;;;;;;;;;;5076606;28;20180;-67
2022/06/06 05:46:26;;;;;;;11.80;8.50;;;;;;;;;;5059184;28;20177;-66
2022/06/06 05:48:52;;;;;;;12.33;8.30;;;;;;;;;;5059159;28;20221;-65
2022/06/06 05:51:38;;;;;;;8.57;7.23;;;;;;;;;;5077682;28;20181;-66
2022/06/06 05:54:18;;;;;;;10.53;7.00;;;;;;;;;;5077195;28;20503;-66
2022/06/06 05:56:51;;;;;;;8.73;6.77;;;;;;;;;;5058772;28;20202;-66
2022/06/06 05:59:35;;;;;;;9.63;6.70;;;;;;;;;;5076128;28;20259;-66
2022/06/06 06:02:10;;;;;;;9.50;6.90;;;;;;;;;;5076404;28;20260;-66
2022/06/06 06:05:02;;;;;;;10.10;6.90;;;;;;;;;;5076560;28;20177;-66
2022/06/06 06:07:37;;;;;;;8.73;6.87;;;;;;;;;;5045387;28;20229;-67
2022/06/06 06:10:09;;;;;;;9.27;6.73;;;;;;;;;;5058313;28;20185;-66
2022/06/06 06:13:04;;;;;;;8.93;6.37;;;;;;;;;;5076662;28;20710;-67
2022/06/06 06:15:34;;;;;;;9.07;6.10;;;;;;;;;;5004963;28;20204;-67
2022/06/06 06:18:01;;;;;;;8.47;6.17;;;;;;;;;;5075500;28;20206;-66
2022/06/06 06:20:34;;;;;;;9.27;6.27;;;;;;;;;;5075949;28;20537;-67
2022/06/06 06:23:07;;;;;;;7.60;6.03;;;;;;;;;;5076171;28;20180;-66
2022/06/06 06:25:34;;;;;;;8.10;5.57;;;;;;;;;;5076033;28;20241;-66
2022/06/06 06:28:05;;;;;;;8.07;5.70;;;;;;;;;;5075933;28;20202;-66
2022/06/06 06:30:34;;;;;;;8.37;5.83;;;;;;;;;;5075860;28;20243;-67
2022/06/06 06:33:06;;;;;;;8.90;5.60;;;;;;;;;;5057635;28;20272;-66
2022/06/06 06:35:39;;;;;;;7.97;5.37;;;;;;;;;;5075810;28;20182;-66
2022/06/06 06:38:24;;;;;;;7.77;5.60;;;;;;;;;;5075799;28;20209;-68
2022/06/06 06:41:05;;;;;;;9.97;5.70;;;;;;;;;;5057754;28;20181;-67
2022/06/06 06:43:41;;;;;;;5.80;4.47;;;;;;;;;;5076222;28;20252;-67
2022/06/06 06:46:14;;;;;;;6.63;4.90;;;;;;;;;;5076797;28;20164;-67
2022/06/06 06:48:44;;;;;;;5.10;4.53;;;;;;;;;;5076607;28;20562;-67
2022/06/06 06:51:16;;;;;;;5.40;4.47;;;;;;;;;;5077078;28;20173;-67
2022/06/06 06:53:42;;;;;;;7.07;4.27;;;;;;;;;;5076549;28;20256;-66
2022/06/06 06:56:27;;;;;;;4.20;3.80;;;;;;;;;;5057387;28;20216;-66
2022/06/06 06:58:54;;;;;;;6.87;3.77;;;;;;;;;;5057159;28;20237;-66
2022/06/06 07:08:32;;;;;;;5.80;3.83;;;;;;;;;;5057325;28;20642;-66
2022/06/06 07:10:19;;;;;;;5.43;4.13;;;;;;;;;;5075132;28;20189;-66
2022/06/06 07:12:45;;;;;;;4.97;3.63;;;;;;;;;;5074929;28;20556;-66
2022/06/06 07:15:34;;;;;;;5.13;3.73;;;;;;;;;;5057062;28;20182;-66
2022/06/06 07:18:01;;;;;;;3.83;2.90;;;;;;;;;;5075246;28;20224;-66
2022/06/06 07:20:27;;;;;;;4.60;3.27;;;;;;;;;;5074980;28;20177;-66
2022/06/06 07:23:05;;;;;;;5.20;3.47;;;;;;;;;;5057150;28;20600;-67
2022/06/06 07:25:39;;;;;;;3.93;3.40;;;;;;;;;;5057346;28;20174;-67
2022/06/06 07:28:09;;;;;;;4.83;3.87;;;;;;;;;;5075131;28;20193;-67
2022/06/06 07:30:38;;;;;;;5.43;3.50;;;;;;;;;;5056665;28;20200;-66
2022/06/06 07:33:23;;;;;;;3.37;3.07;;;;;;;;;;5074855;28;20177;-66
2022/06/06 07:35:55;;;;;;;4.40;3.40;;;;;;;;;;5074981;28;20295;-67
2022/06/06 07:38:20;;;;;;;3.93;3.07;;;;;;;;;;5074939;28;20237;-65
2022/06/06 07:41:03;;;;;;;2.93;2.53;;;;;;;;;;5056656;28;20239;-67
2022/06/06 07:43:28;;;;;;;4.87;2.73;;;;;;;;;;5074326;28;20614;-66
2022/06/06 07:45:59;;;;;;;3.30;2.40;;;;;;;;;;5056911;28;20180;-67
2022/06/06 07:48:38;;;;;;;2.80;2.60;;;;;;;;;;5056191;28;20224;-66
2022/06/06 07:51:21;;;;;;;3.70;2.70;;;;;;;;;;5074967;28;20617;-66
2022/06/06 07:53:50;;;;;;;4.37;2.33;;;;;;;;;;5056425;28;20592;-66
2022/06/06 07:56:25;;;;;;;3.70;2.50;;;;;;;;;;5074452;28;20178;-67
2022/06/06 07:58:56;;;;;;;2.67;2.47;;;;;;;;;;5074470;28;20209;-67
2022/06/06 08:01:37;;;;;;;2.23;2.00;;;;;;;;;;5074561;28;20220;-67
2022/06/06 08:04:03;;;;;;;3.70;2.60;;;;;;;;;;5075065;28;20174;-66
2022/06/06 08:06:39;;;;;;;3.17;2.20;;;;;;;;;;5057530;28;20262;-66
2022/06/06 08:09:17;;;;;;;2.70;1.97;;;;;;;;;;5075406;28;20193;-66
2022/06/06 08:12:02;;;;;;;2.53;2.10;;;;;;;;;;5057655;28;20178;-68
2022/06/06 08:14:40;;;;;;;3.77;2.27;;;;;;;;;;5075609;28;20169;-65
2022/06/06 08:17:22;;;;;;;2.43;1.80;;;;;;;;;;5075612;28;20657;-65
2022/06/06 08:20:24;;;;;;;2.30;1.90;;;;;;;;;;5075470;28;20732;-65
2022/06/06 08:22:52;;;;;;;4.57;2.00;;;;;;;;;;4994154;28;20184;-66
2022/06/06 08:25:20;;;;;;;2.50;1.60;;;;;;;;;;5060550;28;20196;-65
2022/06/06 08:27:47;;;;;;;2.33;1.80;;;;;;;;;;5057632;28;20205;-66
2022/06/06 08:30:14;;;;;;;2.43;1.77;;;;;;;;;;5074737;28;20586;-67
2022/06/06 08:32:40;;;;;;;1.83;1.70;;;;;;;;;;5075694;28;20281;-66
2022/06/06 08:35:06;;;;;;;2.63;1.53;;;;;;;;;;5058079;28;20637;-65
2022/06/06 08:37:47;;;;;;;1.87;1.60;;;;;;;;;;5057374;28;20304;-65
2022/06/06 08:40:16;;;;;;;2.73;1.53;;;;;;;;;;5076087;28;20158;-66
2022/06/06 08:42:57;;;;;;;2.63;1.50;;;;;;;;;;5059329;28;20657;-66
2022/06/06 08:45:48;;;;;;;4.30;1.87;;;;;;;;;;5080548;28;20216;-65
2022/06/06 08:48:39;;;;;;;1.93;1.37;;;;;;;;;;5083978;22;20668;-64
2022/06/06 08:51:25;;;;;;;2.63;2.00;;;;;;;;;;5057492;28;20174;-65
2022/06/06 08:54:11;;;;;;;2.23;1.70;;;;;;;;;;5057073;28;20516;-66
2022/06/06 08:56:44;;;;;;;1.73;1.40;;;;;;;;;;5026257;28;20189;-65
2022/06/06 08:59:22;;;;;;;1.40;1.30;;;;;;;;;;5057017;28;20186;-65
2022/06/06 09:02:06;;;;;;;2.50;1.40;;;;;;;;;;5056871;28;20154;-65
2022/06/06 09:04:54;;;;;;;1.70;1.60;;;;;;;;;;5056886;28;20166;-66
2022/06/06 09:07:20;;;;;;;1.47;1.37;;;;;;;;;;5057105;28;20181;-65
2022/06/06 09:10:04;;;;;;;1.53;1.43;;;;;;;;;;5057111;28;20550;-65
2022/06/06 09:12:49;;;;;;;2.23;1.50;;;;;;;;;;5056920;28;20273;-65
2022/06/06 09:15:39;;;;;;;1.40;1.30;;;;;;;;;;5038727;28;20190;-65
2022/06/06 09:18:17;;;;;;;1.67;1.50;;;;;;;;;;5056710;28;20194;-65
2022/06/06 09:20:58;;;;;;;3.53;1.50;;;;;;;;;;5038517;28;20167;-65
2022/06/06 09:23:30;;;;;;;2.23;1.53;;;;;;;;;;5056480;28;20159;-65
2022/06/06 09:26:02;;;;;;;2.80;1.27;;;;;;;;;;5056378;28;20180;-65
2022/06/06 09:28:49;;;;;;;1.50;1.40;;;;;;;;;;5056309;28;20205;-65
2022/06/06 09:31:35;;;;;;;1.50;1.40;;;;;;;;;;5045891;28;20198;-65
2022/06/06 09:34:28;;;;;;;1.57;1.20;;;;;;;;;;5056453;28;20174;-65
2022/06/06 09:37:06;;;;;;;1.20;1.10;;;;;;;;;;5056400;28;20293;-65
2022/06/06 09:39:32;;;;;;;4.90;1.40;;;;;;;;;;5056266;28;20305;-65
2022/06/06 09:42:34;;;;;;;1.60;1.20;;;;;;;;;;5056070;28;20167;-65
2022/06/06 09:45:14;;;;;;;1.03;1.03;;;;;;;;;;4994703;28;20287;-65
2022/06/06 09:47:51;;;;;;;1.40;1.23;;;;;;;;;;5049695;28;20284;-66
2022/06/06 09:50:35;;;;;;;1.43;1.10;;;;;;;;;;5056058;28;20186;-65
2022/06/06 09:53:08;;;;;;;1.20;1.10;;;;;;;;;;5055919;28;20175;-65
2022/06/06 09:59:01;;;;;;;1.00;1.00;;;;;;;;;;5056040;28;20291;-65
2022/06/06 10:01:45;;;;;;;1.27;1.17;;;;;;;;;;5056068;28;20674;-65
2022/06/06 10:04:30;;;;;;;1.40;1.27;;;;;;;;;;5055791;28;20181;-65
2022/06/06 10:06:59;;;;;;;1.77;1.20;;;;;;;;;;5055623;28;20552;-66
2022/06/06 10:09:28;;;;;;;1.00;1.00;;;;;;;;;;5055668;28;20233;-65
2022/06/06 10:12:32;;;;;;;1.17;1.00;;;;;;;;;;5055514;28;20210;-65
2022/06/06 10:14:58;;;;;;;1.07;1.07;;;;;;;;;;4994200;28;20551;-65
2022/06/06 10:17:42;;;;;;;3.73;1.37;;;;;;;;;;4994504;28;20200;-65
2022/06/06 10:20:25;;;;;;;1.00;1.00;;;;;;;;;;5030968;28;20670;-65
2022/06/06 10:23:08;;;;;;;2.70;1.20;;;;;;;;;;5055793;28;20166;-65
2022/06/06 10:25:40;;;;;;;1.27;1.10;;;;;;;;;;5037573;28;20216;-65
2022/06/06 10:28:20;;;;;;;1.40;1.30;;;;;;;;;;5055763;28;20215;-64
2022/06/06 10:31:05;;;;;;;1.10;1.10;;;;;;;;;;5054969;28;20163;-65
2022/06/06 10:33:43;;;;;;;1.63;1.30;;;;;;;;;;5055065;28;20231;-65
2022/06/06 10:36:21;;;;;;;2.10;1.20;;;;;;;;;;5055393;28;20166;-65
2022/06/06 10:39:06;;;;;;;1.90;1.37;;;;;;;;;;5054924;28;20588;-65
2022/06/06 10:41:46;;;;;;;2.10;1.23;;;;;;;;;;5055018;28;20197;-65
2022/06/06 10:44:17;;;;;;;1.53;1.43;;;;;;;;;;5054953;28;20238;-69
2022/06/06 10:46:47;;;;;;;1.90;1.40;;;;;;;;;;5055107;28;20182;-67
2022/06/06 10:49:34;;;;;;;1.97;1.40;;;;;;;;;;5036960;28;20218;-68
2022/06/06 10:52:16;;;;;;;2.60;1.57;;;;;;;;;;5055016;28;20095;-68
2022/06/06 10:54:48;;;;;;;1.53;1.13;;;;;;;;;;5036961;28;20178;-67
2022/06/06 10:57:33;;;;;;;2.45;1.50;;;;;;;;;;5036900;28;20206;-68
2022/06/06 11:00:03;;;;;;;2.87;1.60;;;;;;;;;;5036619;28;20364;-67
2022/06/06 11:02:40;;;;;;;1.67;1.50;;;;;;;;;;5054549;28;20198;-67
2022/06/06 11:05:06;;;;;;;3.40;1.70;;;;;;;;;;5054368;28;20694;-67
2022/06/06 11:07:35;;;;;;;2.10;1.50;;;;;;;;;;5054623;28;20253;-67
2022/06/06 11:10:13;;;;;;;2.23;1.60;;;;;;;;;;5054344;28;20285;-67
2022/06/06 11:12:45;;;;;;;2.23;1.90;;;;;;;;;;5036519;28;20182;-66
2022/06/06 11:15:11;;;;;;;1.90;1.80;;;;;;;;;;5054468;28;20182;-66
2022/06/06 11:17:43;;;;;;;1.70;1.60;;;;;;;;;;5054050;28;20620;-67
2022/06/06 11:20:09;;;;;;;2.10;1.77;;;;;;;;;;5036195;28;20202;-67
2022/06/06 11:22:35;;;;;;;1.67;1.57;;;;;;;;;;5054203;28;20695;-66
2022/06/06 11:25:01;;;;;;;3.53;1.93;;;;;;;;;;5054124;28;20179;-66
2022/06/06 11:27:36;;;;;;;3.63;2.03;;;;;;;;;;5036538;28;20186;-66
2022/06/06 11:30:09;;;;;;;1.60;1.50;;;;;;;;;;5036312;28;20297;-68
2022/06/06 11:32:41;;;;;;;1.67;1.57;;;;;;;;;;5054071;28;20288;-68
2022/06/06 11:35:12;;;;;;;1.53;1.43;;;;;;;;;;5036585;28;20217;-67
2022/06/06 11:37:41;;;;;;;1.90;1.53;;;;;;;;;;5053955;28;20248;-67
2022/06/06 11:40:26;;;;;;;1.67;1.57;;;;;;;;;;5053841;28;20200;-66
2022/06/06 11:42:59;;;;;;;2.87;1.97;;;;;;;;;;5036097;28;20181;-66
2022/06/06 11:45:37;;;;;;;2.33;1.60;;;;;;;;;;5054165;28;20588;-66
2022/06/06 11:48:06;;;;;;;3.10;1.97;;;;;;;;;;5035613;28;20186;-66
2022/06/06 11:50:32;;;;;;;1.67;1.57;;;;;;;;;;5054024;28;20174;-67
2022/06/06 11:53:17;;;;;;;1.60;1.50;;;;;;;;;;5053742;28;20185;-66
2022/06/06 11:55:43;;;;;;;1.50;1.40;;;;;;;;;;5054056;28;20635;-66
2022/06/06 11:58:28;;;;;;;2.60;1.70;;;;;;;;;;5035599;28;20223;-66
2022/06/06 12:00:59;;;;;;;1.60;1.30;;;;;;;;;;5053583;28;20178;-66
2022/06/06 12:03:26;;;;;;;1.40;1.30;;;;;;;;;;5053624;28;20175;-66
2022/06/06 12:06:20;;;;;;;1.67;1.57;;;;;;;;;;5035638;28;20174;-66
2022/06/06 12:08:47;;;;;;;1.63;1.30;;;;;;;;;;5053733;28;20206;-65
2022/06/06 12:11:31;;;;;;;1.40;1.30;;;;;;;;;;5053559;28;20670;-66
2022/06/06 12:13:57;;;;;;;1.70;1.60;;;;;;;;;;5053620;28;20193;-65
2022/06/06 12:16:39;;;;;;;1.40;1.30;;;;;;;;;;5052501;28;20186;-65
2022/06/06 12:19:20;;;;;;;1.93;1.70;;;;;;;;;;5053535;28;20667;-65
2022/06/06 12:21:53;;;;;;;2.13;1.47;;;;;;;;;;5035386;28;20182;-65
2022/06/06 12:24:29;;;;;;;1.27;1.20;;;;;;;;;;5053457;28;20155;-65
2022/06/06 12:27:09;;;;;;;1.63;1.40;;;;;;;;;;5035447;28;20236;-65
2022/06/06 12:29:41;;;;;;;1.50;1.40;;;;;;;;;;5035355;28;20198;-65
2022/06/06 12:32:14;;;;;;;1.93;1.43;;;;;;;;;;5053580;28;20210;-66
2022/06/06 12:34:49;;;;;;;2.00;1.80;;;;;;;;;;5053072;28;20262;-65
2022/06/06 12:37:23;;;;;;;2.27;1.30;;;;;;;;;;5035365;28;20201;-65
2022/06/06 12:39:49;;;;;;;1.80;1.40;;;;;;;;;;5035352;28;20199;-64
2022/06/06 12:42:50;;;;;;;1.97;1.70;;;;;;;;;;5053443;28;20209;-66
2022/06/06 12:45:35;;;;;;;1.83;1.63;;;;;;;;;;4991930;28;20672;-64
2022/06/06 12:48:08;;;;;;;1.60;1.50;;;;;;;;;;5030560;28;20205;-66
2022/06/06 12:50:41;;;;;;;4.30;1.97;;;;;;;;;;5053232;28;20170;-64
2022/06/06 12:53:07;;;;;;;1.77;1.67;;;;;;;;;;5053193;28;20163;-64
2022/06/06 12:58:40;;;;;;;1.83;1.70;;;;;;;;;;5053415;28;20217;-64
2022/06/06 13:04:05;;;;;;;1.77;1.67;;;;;;;;;;5053320;28;20677;-65
2022/06/06 13:06:44;;;;;;;1.40;1.30;;;;;;;;;;5053347;28;20159;-65
2022/06/06 13:09:20;;;;;;;1.40;1.30;;;;;;;;;;5035115;28;20289;-65
2022/06/06 13:11:52;;;;;;;1.30;1.20;;;;;;;;;;5053064;28;20178;-65
2022/06/06 13:14:24;;;;;;;1.30;1.20;;;;;;;;;;5034960;28;20182;-64
2022/06/06 13:16:58;;;;;;;1.13;1.13;;;;;;;;;;5053091;28;20178;-65
2022/06/06 13:19:30;;;;;;;1.90;1.27;;;;;;;;;;5052748;28;20793;-65
2022/06/06 13:22:00;;;;;;;1.43;1.33;;;;;;;;;;5035051;28;20178;-65
2022/06/06 13:24:45;;;;;;;1.70;1.40;;;;;;;;;;5052881;28;20167;-65
2022/06/06 13:27:14;;;;;;;1.40;1.30;;;;;;;;;;5053077;28;20206;-65
2022/06/06 13:29:40;;;;;;;1.23;1.23;;;;;;;;;;5056485;28;20725;-65
2022/06/06 13:32:06;;;;;;;1.13;1.10;;;;;;;;;;5056583;28;20183;-65
2022/06/06 13:34:35;;;;;;;2.03;1.10;;;;;;;;;;5038654;28;20646;-64
2022/06/06 13:37:01;;;;;;;1.40;1.30;;;;;;;;;;5056253;28;20202;-65
2022/06/06 13:39:45;;;;;;;1.43;1.20;;;;;;;;;;5056328;28;20766;-65
2022/06/06 13:42:19;;;;;;;1.50;1.40;;;;;;;;;;5056280;28;20634;-65
2022/06/06 13:44:58;;;;;;;2.73;1.30;;;;;;;;;;5056268;28;20200;-65
2022/06/06 13:47:30;;;;;;;1.40;1.30;;;;;;;;;;5038263;28;20174;-65
2022/06/06 13:50:13;;;;;;;2.00;1.43;;;;;;;;;;5038025;28;20221;-65
2022/06/06 13:52:58;;;;;;;1.03;1.03;;;;;;;;;;5056092;28;20159;-65
2022/06/06 13:55:31;;;;;;;1.20;1.10;;;;;;;;;;5056480;28;20174;-66
2022/06/06 13:58:22;;;;;;;1.30;1.20;;;;;;;;;;5055801;28;20743;-65
2022/06/06 14:01:05;;;;;;;2.07;1.37;;;;;;;;;;5038175;28;20635;-65
2022/06/06 14:03:44;;;;;;;2.00;1.37;;;;;;;;;;5055844;28;20171;-65
2022/06/06 14:06:28;;;;;;;1.30;1.20;;;;;;;;;;5056172;28;20258;-65
2022/06/06 14:08:58;;;;;;;2.10;1.30;;;;;;;;;;5037694;28;20740;-65
2022/06/06 14:11:45;;;;;;;1.63;1.20;;;;;;;;;;5055657;28;20178;-65
2022/06/06 14:14:14;;;;;;;1.20;1.20;;;;;;;;;;5055923;28;20174;-67
2022/06/06 14:16:45;;;;;;;2.20;1.20;;;;;;;;;;5055726;28;20266;-65
2022/06/06 14:19:16;;;;;;;1.20;1.10;;;;;;;;;;5037490;28;20199;-65
2022/06/06 14:21:53;;;;;;;2.20;1.43;;;;;;;;;;5055812;28;20174;-65
2022/06/06 14:24:24;;;;;;;1.30;1.20;;;;;;;;;;5055640;28;20185;-65
2022/06/06 14:26:52;;;;;;;1.10;1.10;;;;;;;;;;5037633;28;20274;-65
2022/06/06 14:29:45;;;;;;;1.07;1.00;;;;;;;;;;5037595;28;20191;-65
2022/06/06 14:32:27;;;;;;;1.33;1.13;;;;;;;;;;5032388;28;20612;-65
2022/06/06 14:34:54;;;;;;;1.20;1.10;;;;;;;;;;5055106;28;20584;-64
2022/06/06 14:37:26;;;;;;;1.10;1.00;;;;;;;;;;5055093;28;20218;-65
2022/06/06 14:39:54;;;;;;;3.20;1.10;;;;;;;;;;5054131;28;20217;-65
2022/06/06 14:42:24;;;;;;;2.13;1.10;;;;;;;;;;5055282;28;20178;-65
2022/06/06 14:44:59;;;;;;;1.00;1.00;;;;;;;;;;5055495;28;20209;-65
2022/06/06 14:47:26;;;;;;;0.90;0.90;;;;;;;;;;5055245;28;20182;-67
2022/06/06 14:52:50;;;;;;;1.47;1.37;;;;;;;;;;5055023;28;20270;-65
2022/06/06 14:55:19;;;;;;;1.50;1.10;;;;;;;;;;5055152;28;20179;-65
2022/06/06 14:57:45;;;;;;;1.20;1.10;;;;;;;;;;5055020;28;20206;-65
2022/06/06 15:00:15;;;;;;;1.10;1.10;;;;;;;;;;5036825;28;20194;-66
2022/06/06 15:02:41;;;;;;;1.27;1.17;;;;;;;;;;5054784;28;20283;-64
2022/06/06 15:05:15;;;;;;;1.47;1.03;;;;;;;;;;5036857;28;20635;-65
2022/06/06 15:07:48;;;;;;;2.00;1.20;;;;;;;;;;5054700;28;20174;-65
2022/06/06 15:10:22;;;;;;;1.67;1.10;;;;;;;;;;5054457;28;20608;-66
2022/06/06 15:12:48;;;;;;;1.00;1.00;;;;;;;;;;5054500;28;20165;-65
2022/06/06 15:15:14;;;;;;;1.00;1.00;;;;;;;;;;5036727;28;20525;-65
2022/06/06 15:17:42;;;;;;;3.13;1.10;;;;;;;;;;5054223;28;20206;-65
2022/06/06 15:20:32;;;;;;;1.47;1.10;;;;;;;;;;5054358;28;20190;-65
2022/06/06 15:23:15;;;;;;;2.37;1.30;;;;;;;;;;5046559;28;20609;-66
2022/06/06 15:26:02;;;;;;;1.63;1.07;;;;;;;;;;5054204;28;20178;-65
2022/06/06 15:28:54;;;;;;;2.00;1.17;;;;;;;;;;5043821;28;20214;-65
2022/06/06 15:31:35;;;;;;;1.10;1.10;;;;;;;;;;5030909;28;20216;-65
2022/06/06 15:34:20;;;;;;;2.57;1.10;;;;;;;;;;5054034;28;20257;-65
2022/06/06 15:37:07;;;;;;;1.23;1.13;;;;;;;;;;5054260;28;20163;-65
2022/06/06 15:39:45;;;;;;;1.33;1.10;;;;;;;;;;5035963;28;20198;-65
2022/06/06 15:42:21;;;;;;;1.20;1.10;;;;;;;;;;5036074;28;20302;-65
2022/06/06 15:44:47;;;;;;;1.03;1.03;;;;;;;;;;5054335;28;20169;-65